createdAt,value
2022-10-19T00:01:41.007Z,22.07
2022-10-19T00:04:29.342Z,23.17
2022-10-19T00:07:19.566Z,22.30
2022-10-19T00:10:09.601Z,21.77
2022-10-19T00:12:57.689Z,23.50
2022-10-19T00:15:46.406Z,21.27
2022-10-19T00:18:34.059Z,21.87
2022-10-19T00:21:21.951Z,23.07
2022-10-19T00:24:10.374Z,22.80
2022-10-19T00:26:58.204Z,22.63
2022-10-19T00:29:46.713Z,24.07
2022-10-19T00:32:34.866Z,24.35
2022-10-19T00:35:23.303Z,23.83
2022-10-19T00:38:11.558Z,24.20
2022-10-19T00:40:59.899Z,23.40
2022-10-19T00:43:58.681Z,25.47
2022-10-19T00:46:48.751Z,24.57
2022-10-19T00:49:40.072Z,25.60
2022-10-19T00:52:29.056Z,26.27
2022-10-19T00:55:18.176Z,26.13
2022-10-19T00:58:05.933Z,27.33
2022-10-19T01:00:54.972Z,26.93
2022-10-19T01:03:43.832Z,26.60
2022-10-19T01:06:34.084Z,27.00
2022-10-19T01:09:22.544Z,26.50
2022-10-19T01:12:21.045Z,25.90
2022-10-19T01:15:21.969Z,25.17
2022-10-19T01:18:19.423Z,26.07
2022-10-19T01:21:21.102Z,26.10
2022-10-19T01:24:43.555Z,25.37
2022-10-19T01:27:53.347Z,25.88
2022-10-19T01:30:51.037Z,27.50
2022-10-19T01:33:50.340Z,28.33
2022-10-19T01:36:43.275Z,28.53
2022-10-19T01:39:45.343Z,28.27
2022-10-19T01:42:44.811Z,29.40
2022-10-19T01:45:40.668Z,29.97
2022-10-19T01:48:32.607Z,28.87
2022-10-19T01:51:27.686Z,29.77
2022-10-19T01:54:18.122Z,29.93
2022-10-19T01:57:09.622Z,28.83
2022-10-19T01:59:58.392Z,29.63
2022-10-19T02:02:50.498Z,31.17
2022-10-19T02:05:40.610Z,30.65
2022-10-19T02:08:31.610Z,31.17
2022-10-19T02:11:21.855Z,28.67
2022-10-19T02:14:17.489Z,30.60
2022-10-19T02:17:09.353Z,29.13
2022-10-19T02:19:59.717Z,30.65
2022-10-19T02:22:47.862Z,29.10
2022-10-19T02:25:36.880Z,28.57
2022-10-19T02:31:19.589Z,28.73
2022-10-19T02:34:09.060Z,29.03
2022-10-19T02:36:57.842Z,29.57
2022-10-19T02:39:46.269Z,29.50
2022-10-19T02:42:39.125Z,29.67
2022-10-19T02:45:31.684Z,28.95
2022-10-19T02:48:24.130Z,28.83
2022-10-19T02:51:31.423Z,28.25
2022-10-19T02:54:19.432Z,29.47
2022-10-19T02:57:17.292Z,29.23
2022-10-19T03:00:09.685Z,28.33
2022-10-19T03:02:58.072Z,30.52
2022-10-19T03:05:46.384Z,29.30
2022-10-19T03:08:34.512Z,29.90
2022-10-19T03:11:23.141Z,29.30
2022-10-19T03:14:11.951Z,29.30
2022-10-19T03:17:00.232Z,28.00
2022-10-19T03:19:48.639Z,28.90
2022-10-19T03:22:36.301Z,28.20
2022-10-19T03:25:24.856Z,28.93
2022-10-19T03:28:14.783Z,28.77
2022-10-19T03:31:03.227Z,29.23
2022-10-19T03:33:51.126Z,29.30
2022-10-19T03:36:40.240Z,28.67
2022-10-19T03:39:28.479Z,28.00
2022-10-19T03:42:17.359Z,28.90
2022-10-19T03:45:07.581Z,30.93
2022-10-19T03:47:55.568Z,30.97
2022-10-19T03:50:44.324Z,32.70
2022-10-19T03:53:33.272Z,32.20
2022-10-19T03:56:24.409Z,32.90
2022-10-19T03:59:15.382Z,31.05
2022-10-19T04:02:04.021Z,29.73
2022-10-19T04:04:52.670Z,30.07
2022-10-19T04:07:40.895Z,31.07
2022-10-19T04:10:30.780Z,29.50
2022-10-19T04:13:18.978Z,31.43
2022-10-19T04:16:09.560Z,30.37
2022-10-19T04:18:58.523Z,30.33
2022-10-19T04:21:52.320Z,29.33
2022-10-19T04:24:41.070Z,30.60
2022-10-19T04:27:29.082Z,28.50
2022-10-19T04:30:17.520Z,28.87
2022-10-19T04:33:05.868Z,29.43
2022-10-19T04:36:13.400Z,30.13
2022-10-19T04:39:02.087Z,28.40
2022-10-19T04:41:49.786Z,30.77
2022-10-19T04:44:37.482Z,29.27
2022-10-19T04:47:25.760Z,30.23
2022-10-19T04:50:13.997Z,28.10
2022-10-19T04:53:01.985Z,28.33
2022-10-19T04:55:50.348Z,27.87
2022-10-19T04:58:38.619Z,28.77
2022-10-19T05:01:28.705Z,28.20
2022-10-19T05:04:17.155Z,28.00
2022-10-19T05:07:05.169Z,27.70
2022-10-19T05:09:53.131Z,27.40
2022-10-19T05:12:41.825Z,28.87
2022-10-19T05:15:30.574Z,26.87
2022-10-19T05:18:18.833Z,28.80
2022-10-19T05:21:09.778Z,28.80
2022-10-19T05:23:58.438Z,30.90
2022-10-19T05:26:46.461Z,28.63
2022-10-19T05:29:34.712Z,28.33
2022-10-19T05:32:22.546Z,28.27
2022-10-19T05:35:11.006Z,27.30
2022-10-19T05:37:58.804Z,27.87
2022-10-19T05:40:52.813Z,27.40
2022-10-19T05:43:42.853Z,28.27
2022-10-19T05:46:32.689Z,26.67
2022-10-19T05:49:22.196Z,27.50
2022-10-19T05:52:10.519Z,25.40
2022-10-19T05:54:58.650Z,25.83
2022-10-19T05:57:46.641Z,27.53
2022-10-19T06:00:34.696Z,26.30
2022-10-19T06:03:23.772Z,26.93
2022-10-19T06:06:12.024Z,28.70
2022-10-19T06:09:01.012Z,28.53
2022-10-19T06:11:49.152Z,26.70
2022-10-19T06:14:37.521Z,25.80
2022-10-19T06:17:28.046Z,25.37
2022-10-19T06:20:16.423Z,24.17
2022-10-19T06:23:05.433Z,25.50
2022-10-19T06:25:53.483Z,26.57
2022-10-19T06:28:42.946Z,24.87
2022-10-19T06:31:47.314Z,25.90
2022-10-19T06:34:38.463Z,23.63
2022-10-19T06:37:27.170Z,23.83
2022-10-19T06:40:15.529Z,23.37
2022-10-19T06:43:03.991Z,23.03
2022-10-19T06:45:52.278Z,23.47
2022-10-19T06:48:41.277Z,21.70
2022-10-19T06:51:31.526Z,23.00
2022-10-19T06:54:19.684Z,19.67
2022-10-19T06:57:08.196Z,20.00
2022-10-19T07:00:10.084Z,19.60
2022-10-19T07:03:14.385Z,18.80
2022-10-19T07:06:15.759Z,18.27
2022-10-19T07:09:05.138Z,19.13
2022-10-19T07:11:53.205Z,17.40
2022-10-19T07:14:41.528Z,19.43
2022-10-19T07:17:29.898Z,18.13
2022-10-19T07:20:18.346Z,18.23
2022-10-19T07:23:07.899Z,18.83
2022-10-19T07:26:01.143Z,15.90
2022-10-19T07:29:07.165Z,16.13
2022-10-19T07:32:03.028Z,18.53
2022-10-19T07:34:57.683Z,16.40
2022-10-19T07:37:46.349Z,15.00
2022-10-19T07:40:35.946Z,15.27
2022-10-19T07:43:25.461Z,15.70
2022-10-19T07:46:17.919Z,15.30
2022-10-19T07:49:09.689Z,15.80
2022-10-19T07:51:58.652Z,14.15
2022-10-19T07:54:48.964Z,13.60
2022-10-19T07:57:37.763Z,13.77
2022-10-19T08:00:25.568Z,13.50
2022-10-19T08:04:31.205Z,13.63
2022-10-19T08:06:23.660Z,13.60
2022-10-19T08:09:27.740Z,12.33
2022-10-19T08:12:21.333Z,12.90
2022-10-19T08:15:10.421Z,12.63
2022-10-19T08:18:00.948Z,12.60
2022-10-19T08:20:50.127Z,11.63
2022-10-19T08:23:38.506Z,10.77
2022-10-19T08:26:29.571Z,10.93
2022-10-19T08:29:19.062Z,10.40
2022-10-19T08:32:07.473Z,9.30
2022-10-19T08:35:00.234Z,9.40
2022-10-19T08:37:49.284Z,8.77
2022-10-19T08:40:37.915Z,9.20
2022-10-19T08:43:34.557Z,9.17
2022-10-19T08:46:33.248Z,9.20
2022-10-19T08:49:25.664Z,8.23
2022-10-19T08:52:19.708Z,8.10
2022-10-19T08:55:18.036Z,8.10
2022-10-19T08:58:23.347Z,8.23
2022-10-19T09:01:20.058Z,7.83
2022-10-19T09:04:17.649Z,7.87
2022-10-19T09:07:23.179Z,7.10
2022-10-19T09:10:20.813Z,7.23
2022-10-19T09:13:20.217Z,6.70
2022-10-19T09:16:14.448Z,6.77
2022-10-19T09:19:02.672Z,7.50
2022-10-19T09:21:55.900Z,6.60
2022-10-19T09:24:49.294Z,6.27
2022-10-19T09:27:42.330Z,6.03
2022-10-19T09:30:31.733Z,6.40
2022-10-19T09:33:28.241Z,6.47
2022-10-19T09:36:22.579Z,6.17
2022-10-19T09:39:16.475Z,5.67
2022-10-19T09:42:12.590Z,5.83
2022-10-19T09:45:11.954Z,5.63
2022-10-19T09:48:08.732Z,5.67
2022-10-19T09:51:04.060Z,5.87
2022-10-19T09:53:55.207Z,5.97
2022-10-19T09:56:54.974Z,5.20
2022-10-19T09:59:43.622Z,5.07
2022-10-19T10:02:33.873Z,5.73
2022-10-19T10:05:31.853Z,5.73
2022-10-19T10:08:23.100Z,5.47
2022-10-19T10:11:15.871Z,5.63
2022-10-19T10:14:14.680Z,5.60
2022-10-19T10:17:06.586Z,5.40
2022-10-19T10:20:19.166Z,5.33
2022-10-19T10:23:20.804Z,5.40
2022-10-19T10:26:19.632Z,5.28
2022-10-19T10:29:20.612Z,5.73
2022-10-19T10:32:16.555Z,5.87
2022-10-19T10:35:20.078Z,5.97
2022-10-19T10:38:14.575Z,5.30
2022-10-19T10:41:15.802Z,5.97
2022-10-19T10:44:09.705Z,5.47
2022-10-19T10:47:01.290Z,5.00
2022-10-19T10:50:00.698Z,4.62
2022-10-19T11:00:02.084Z,5.63
2022-10-19T11:02:56.507Z,4.75
2022-10-19T11:05:48.731Z,5.13
2022-10-19T11:08:47.772Z,4.83
2022-10-19T11:11:42.058Z,4.73
2022-10-19T11:14:44.697Z,5.37
2022-10-19T11:17:38.090Z,5.13
2022-10-19T11:20:36.534Z,4.70
2022-10-19T11:23:44.068Z,4.33
2022-10-19T11:26:49.251Z,4.43
2022-10-19T11:34:26.574Z,4.87
2022-10-19T11:42:07.178Z,4.90
2022-10-19T11:45:27.955Z,4.73
2022-10-19T11:52:39.391Z,5.30
2022-10-19T11:55:45.878Z,4.80
2022-10-19T11:58:55.144Z,4.43
2022-10-19T12:01:59.206Z,4.40
2022-10-19T12:04:59.528Z,4.73
2022-10-19T12:08:10.701Z,4.87
2022-10-19T12:15:57.823Z,4.70
2022-10-19T12:19:08.531Z,5.08
2022-10-19T12:22:35.734Z,4.70
2022-10-19T12:25:49.655Z,5.57
2022-10-19T12:29:14.381Z,5.47
2022-10-19T12:56:56.852Z,4.93
2022-10-19T13:04:23.896Z,4.33
2022-10-19T13:07:19.101Z,4.67
2022-10-19T13:10:20.088Z,5.13
2022-10-19T13:14:00.603Z,4.67
2022-10-19T13:17:01.959Z,5.20
2022-10-19T13:19:51.248Z,5.05
2022-10-19T13:22:40.437Z,4.60
2022-10-19T13:25:30.708Z,4.37
2022-10-19T13:28:40.273Z,5.17
2022-10-19T13:31:33.553Z,4.90
2022-10-19T13:34:25.498Z,4.30
2022-10-19T13:40:23.678Z,4.70
2022-10-19T13:43:20.889Z,4.90
2022-10-19T13:46:15.701Z,4.63
2022-10-19T13:49:32.790Z,4.23
2022-10-19T13:52:54.586Z,4.97
2022-10-19T13:56:20.468Z,4.53
2022-10-19T13:59:59.123Z,4.80
2022-10-19T14:03:05.400Z,4.97
2022-10-19T14:06:13.475Z,4.80
2022-10-19T14:09:57.295Z,4.83
2022-10-19T14:12:46.947Z,5.13
2022-10-19T14:15:36.481Z,4.63
2022-10-19T14:18:27.295Z,4.80
2022-10-19T14:21:28.481Z,4.33
2022-10-19T14:24:29.783Z,4.33
2022-10-19T14:27:23.359Z,5.10
2022-10-19T14:30:22.746Z,4.70
2022-10-19T14:33:17.399Z,4.40
2022-10-19T14:36:17.175Z,4.80
2022-10-19T14:39:07.727Z,4.40
2022-10-19T14:42:00.434Z,4.80
2022-10-19T14:44:50.926Z,4.43
2022-10-19T14:47:54.364Z,4.70
2022-10-19T14:50:49.387Z,4.17
2022-10-19T14:53:43.057Z,5.40
2022-10-19T14:56:36.936Z,4.07
2022-10-19T14:59:29.432Z,4.67
2022-10-19T15:02:22.491Z,5.30
2022-10-19T15:05:20.374Z,4.93
2022-10-19T15:08:16.587Z,4.87
2022-10-19T15:11:07.093Z,5.10
2022-10-19T15:14:06.533Z,5.30
2022-10-19T15:16:56.762Z,5.90
2022-10-19T15:19:45.655Z,5.80
2022-10-19T15:22:40.554Z,6.90
2022-10-19T15:25:36.476Z,6.03
2022-10-19T15:28:39.112Z,7.10
2022-10-19T15:31:34.225Z,7.03
2022-10-19T15:34:29.689Z,8.70
2022-10-19T15:40:25.407Z,8.87
2022-10-19T15:43:48.041Z,8.70
2022-10-19T15:47:19.724Z,8.37
2022-10-19T15:50:38.956Z,9.00
2022-10-19T15:53:31.462Z,8.67
2022-10-19T15:56:21.550Z,9.20
2022-10-19T15:59:15.273Z,8.67
2022-10-19T16:02:09.706Z,9.93
2022-10-19T16:04:58.391Z,8.33
2022-10-19T16:07:47.998Z,11.53
2022-10-19T16:10:36.718Z,13.00
2022-10-19T16:13:31.270Z,13.80
2022-10-19T16:16:26.070Z,15.57
2022-10-19T16:19:14.975Z,15.17
2022-10-19T16:22:03.734Z,14.97
2022-10-19T16:24:51.928Z,13.77
2022-10-19T16:27:40.053Z,16.83
2022-10-19T16:30:28.616Z,17.33
2022-10-19T16:33:16.638Z,17.53
2022-10-19T16:36:16.491Z,16.97
2022-10-19T16:39:04.774Z,18.10
2022-10-19T16:41:53.195Z,17.27
2022-10-19T16:44:41.189Z,18.03
2022-10-19T16:47:30.148Z,18.37
2022-10-19T16:50:20.545Z,18.47
2022-10-19T16:53:21.073Z,19.77
2022-10-19T16:56:12.356Z,17.87
2022-10-19T16:59:03.258Z,19.07
2022-10-19T17:02:08.208Z,19.37
2022-10-19T17:04:57.128Z,18.23
2022-10-19T17:08:01.963Z,18.47
2022-10-19T17:10:57.769Z,18.37
2022-10-19T17:13:49.187Z,17.93
2022-10-19T17:16:38.534Z,19.20
2022-10-19T17:19:26.764Z,19.33
2022-10-19T17:22:15.546Z,22.70
2022-10-19T17:25:04.226Z,21.67
2022-10-19T17:27:53.472Z,22.87
2022-10-19T17:30:45.717Z,21.37
2022-10-19T17:36:26.725Z,21.83
2022-10-19T17:39:17.611Z,21.10
2022-10-19T17:42:06.471Z,21.00
2022-10-19T17:44:56.797Z,21.70
2022-10-19T17:47:47.023Z,21.20
2022-10-19T17:50:37.300Z,20.20
2022-10-19T17:53:25.414Z,21.47
2022-10-19T17:56:15.630Z,21.00
2022-10-19T17:59:06.945Z,21.57
2022-10-19T18:01:55.187Z,22.50
2022-10-19T18:04:43.464Z,22.27
2022-10-19T18:07:32.871Z,21.80
2022-10-19T18:10:21.503Z,22.27
2022-10-19T18:13:09.862Z,21.47
2022-10-19T18:16:01.378Z,20.20
2022-10-19T18:18:51.529Z,22.62
2022-10-19T18:21:44.025Z,21.73
2022-10-19T18:24:34.160Z,22.40
2022-10-19T18:27:22.051Z,21.53
2022-10-19T18:30:14.833Z,23.03
2022-10-19T18:33:03.259Z,24.00
2022-10-19T18:35:51.882Z,25.27
2022-10-19T18:38:41.117Z,24.20
2022-10-19T18:41:29.730Z,25.30
2022-10-19T18:44:20.841Z,23.37
2022-10-19T18:47:11.670Z,25.90
2022-10-19T18:49:59.802Z,26.03
2022-10-19T18:52:48.335Z,31.13
2022-10-19T18:55:36.392Z,32.93
2022-10-19T18:58:25.362Z,35.13
2022-10-19T19:01:18.952Z,33.27
2022-10-19T19:04:10.227Z,33.97
2022-10-19T19:06:58.370Z,33.00
2022-10-19T19:09:46.822Z,31.87
2022-10-19T19:12:35.100Z,29.43
2022-10-19T19:15:23.637Z,29.37
2022-10-19T19:18:12.353Z,30.53
2022-10-19T19:21:00.487Z,27.87
2022-10-19T19:23:50.553Z,27.90
2022-10-19T19:26:41.792Z,24.80
2022-10-19T19:29:30.336Z,21.37
2022-10-19T19:32:21.213Z,19.77
2022-10-19T19:35:10.646Z,18.90
2022-10-19T19:37:59.277Z,18.60
2022-10-19T19:40:47.624Z,18.40
2022-10-19T19:43:37.527Z,17.17
2022-10-19T19:46:26.462Z,14.60
2022-10-19T19:49:14.803Z,15.23
2022-10-19T19:52:03.051Z,11.70
2022-10-19T19:54:53.643Z,12.17
2022-10-19T19:57:42.255Z,11.50
2022-10-19T20:00:30.334Z,10.83
2022-10-19T20:03:18.937Z,11.00
2022-10-19T20:06:08.352Z,10.47
2022-10-19T20:08:56.992Z,10.60
2022-10-19T20:11:46.065Z,10.00
2022-10-19T20:14:36.180Z,9.77
2022-10-19T20:17:24.898Z,10.33
2022-10-19T20:20:17.502Z,9.83
2022-10-19T20:25:53.273Z,9.43
2022-10-19T20:28:42.178Z,9.87
2022-10-19T20:31:32.868Z,8.03
2022-10-19T20:34:21.939Z,8.10
2022-10-19T20:37:12.622Z,7.13
2022-10-19T20:40:07.357Z,7.17
2022-10-19T20:42:57.316Z,7.17
2022-10-19T20:45:45.992Z,7.17
2022-10-19T20:48:34.830Z,6.90
2022-10-19T20:51:29.117Z,6.47
2022-10-19T20:54:20.542Z,6.87
2022-10-19T20:57:08.663Z,6.73
2022-10-19T20:59:56.854Z,5.87
2022-10-19T21:02:47.599Z,6.20
2022-10-19T21:05:38.505Z,6.43
2022-10-19T21:08:27.364Z,6.10
2022-10-19T21:11:18.551Z,5.83
2022-10-19T21:14:08.437Z,5.27
2022-10-19T21:16:57.687Z,6.00
2022-10-19T21:19:46.051Z,6.07
2022-10-19T21:22:39.056Z,5.10
2022-10-19T21:25:29.821Z,4.77
2022-10-19T21:28:18.079Z,4.77
2022-10-19T21:31:10.202Z,4.83
2022-10-19T21:33:58.592Z,5.30
2022-10-19T21:36:47.034Z,5.17
2022-10-19T21:39:36.173Z,5.63
2022-10-19T21:42:24.917Z,4.50
2022-10-19T21:45:30.357Z,4.03
2022-10-19T21:48:19.196Z,4.70
2022-10-19T21:51:21.231Z,4.47
2022-10-19T21:54:13.266Z,4.50
2022-10-19T21:57:02.581Z,4.37
2022-10-19T21:59:50.638Z,4.57
2022-10-19T22:02:39.166Z,4.10
2022-10-19T22:05:27.050Z,4.20
2022-10-19T22:08:15.416Z,4.30
2022-10-19T22:11:08.537Z,3.77
2022-10-19T22:13:59.334Z,3.93
2022-10-19T22:16:47.459Z,3.90
2022-10-19T22:19:35.969Z,3.90
2022-10-19T22:22:24.250Z,3.93
2022-10-19T22:25:12.367Z,3.90
2022-10-19T22:28:00.632Z,3.80
2022-10-19T22:30:54.843Z,3.70
2022-10-19T22:33:43.684Z,3.47
2022-10-19T22:36:32.044Z,3.70
2022-10-19T22:39:20.346Z,3.60
2022-10-19T22:42:08.452Z,4.00
2022-10-19T22:44:56.407Z,3.70
2022-10-19T22:47:44.745Z,3.60
2022-10-19T22:50:33.057Z,3.60
2022-10-19T22:53:22.251Z,3.57
2022-10-19T22:56:14.722Z,3.50
2022-10-19T22:59:05.255Z,3.63
2022-10-19T23:01:54.127Z,4.07
2022-10-19T23:04:42.487Z,3.90
2022-10-19T23:07:30.868Z,3.60
2022-10-19T23:10:21.627Z,3.70
2022-10-19T23:13:13.556Z,3.93
2022-10-19T23:16:01.872Z,3.22
2022-10-19T23:18:50.485Z,4.10
2022-10-19T23:21:39.409Z,3.60
2022-10-19T23:24:28.895Z,3.33
2022-10-19T23:27:16.803Z,3.63
2022-10-19T23:30:06.443Z,3.20
2022-10-19T23:32:54.819Z,3.60
2022-10-19T23:35:43.036Z,3.70
2022-10-19T23:38:31.883Z,4.10
2022-10-19T23:41:21.203Z,3.73
2022-10-19T23:44:10.966Z,4.80
2022-10-19T23:46:59.727Z,3.97
2022-10-19T23:49:47.659Z,3.40
2022-10-19T23:52:36.315Z,4.23
2022-10-19T23:55:24.544Z,3.47
2022-10-19T23:58:12.403Z,4.13
